Key West, FL (33045)

6:57 AM EST on January 23, 2017 (GMT -0500)
| | Change Station
Active Advisory: Small Craft Advisory

Elev -9999 ft 0.00 °N, 0.00 °E | Updated

Scattered Clouds
Scattered Clouds
°F
Feels Like °F
N
Wind Variable Wind from North
Gusts mph

Today
High -- | Low -- °F
--% Chance of Precip.
Yesterday
High -- | Low -- °F
Precip. -- in
Pressure 29.67 in
Visibility 10.0 miles
Clouds Scattered Clouds 5500 ft
Dew Point Not available.
Humidity Not available.
Rainfall --
Snow Depth Not available.
7:11 AM 6:06 PM
Waning Crescent, 19% visible
METAR KNQX 231153Z 27027G33KT 10SM SCT055 23/16 A2967 RMK AO2 PK WND 28041/1103 SLP045 60092 70092 T02330161 53016 $
Pressure 29.67 in
Visibility 10.0 miles
Clouds Scattered Clouds 5500 ft
Dew Point Not available.
Humidity Not available.
Rainfall --
Snow Depth Not available.
7:11 AM 6:06 PM
Waning Crescent, 19% visible
METAR KNQX 231153Z 27027G33KT 10SM SCT055 23/16 A2967 RMK AO2 PK WND 28041/1103 SLP045 60092 70092 T02330161 53016 $

Get Your Daily Forecast Email!

Thanks for signing up!

Be on the lookout for a verification email in your inbox.

You'll start receiving the daily forecast at 8 AM.

×

10-Day Weather Forecast

Almanac

Astronomy

Jan. 23, 2017 Rise Set
Actual Time
Civil Twilight
Nautical Twilight
Astronomical Twilight
Moon
Length of Visible Light
Length of Day
Tomorrow will be .
, % of the Moon is Illuminated

Today's Extremes

State Highs State Lows

Community

WunderPhotos

Upload Photos

1,962,540 photos uploaded!

WunderBlog® & News

Nearby

Air Quality

  Air Quality AQ Index Pollutant
Not available.

Snow Depth

Station Depth Elevation

Earthquake Activity

City Distance Mag. Time & Date
Minimum magnitude displayed is 2.5.

Coastal Water Temperatures

Place Temperature

Stations

Nearby Weather Stations

Station Location Temp. Windchill Dew Point Humidity Wind Precip. Elev Updated Type
                   

Watches & Warnings

Small Craft Advisory
Issued: 5:29 AM EST Jan. 23, 2017 – National Weather Service

... Small Craft Advisory remains in effect...

* winds... west to northwest winds at 25 to 30 knots with
occasional gusts near 35 knots.

* Waves/seas... seas will be as high as 14 feet in portions of the
Gulf Stream and the outer waters of Mainland Monroe.

Precautionary/preparedness actions...

A Small Craft Advisory means that wind speeds of 20 to 33 knots...
or seas of 7 feet or greater... are expected to produce hazardous
conditions for small craft. Inexperienced boaters... especially
those with smaller vessels... should avoid operating in these
conditions.



Bwc